sensor_id;sensor_type;location;lat;lon;timestamp;temperature;humidity
44533;DHT22;48673;53.016;-2.258;2022-09-27T00:00:43;7.80;88.10
44533;DHT22;48673;53.016;-2.258;2022-09-27T00:03:51;7.80;88.00
44533;DHT22;48673;53.016;-2.258;2022-09-27T00:06:37;7.80;88.00
44533;DHT22;48673;53.016;-2.258;2022-09-27T00:09:55;7.90;87.90
44533;DHT22;48673;53.016;-2.258;2022-09-27T00:18:47;7.90;87.40
44533;DHT22;48673;53.016;-2.258;2022-09-27T00:35:25;7.80;87.50
44533;DHT22;48673;53.016;-2.258;2022-09-27T00:42:36;7.90;87.40
44533;DHT22;48673;53.016;-2.258;2022-09-27T00:45:26;7.90;87.30
44533;DHT22;48673;53.016;-2.258;2022-09-27T00:48:38;7.90;87.30
44533;DHT22;48673;53.016;-2.258;2022-09-27T00:51:54;7.90;87.20
44533;DHT22;48673;53.016;-2.258;2022-09-27T00:54:56;7.90;87.30
44533;DHT22;48673;53.016;-2.258;2022-09-27T00:58:21;7.90;87.20
44533;DHT22;48673;53.016;-2.258;2022-09-27T01:01:50;7.90;87.10
44533;DHT22;48673;53.016;-2.258;2022-09-27T01:05:39;7.90;87.20
44533;DHT22;48673;53.016;-2.258;2022-09-27T01:08:43;7.80;87.20
44533;DHT22;48673;53.016;-2.258;2022-09-27T01:16:32;7.80;87.50
44533;DHT22;48673;53.016;-2.258;2022-09-27T01:37:00;7.70;88.20
44533;DHT22;48673;53.016;-2.258;2022-09-27T01:40:38;7.70;88.20
44533;DHT22;48673;53.016;-2.258;2022-09-27T01:47:18;7.80;88.00
44533;DHT22;48673;53.016;-2.258;2022-09-27T01:50:32;7.90;87.90
44533;DHT22;48673;53.016;-2.258;2022-09-27T01:53:51;7.90;87.80
44533;DHT22;48673;53.016;-2.258;2022-09-27T01:57:58;7.90;87.80
44533;DHT22;48673;53.016;-2.258;2022-09-27T02:01:54;8.00;88.10
44533;DHT22;48673;53.016;-2.258;2022-09-27T02:06:00;8.00;88.20
44533;DHT22;48673;53.016;-2.258;2022-09-27T02:15:36;8.10;88.40
44533;DHT22;48673;53.016;-2.258;2022-09-27T02:28:26;8.10;89.30
44533;DHT22;48673;53.016;-2.258;2022-09-27T02:32:13;8.10;89.50
44533;DHT22;48673;53.016;-2.258;2022-09-27T02:35:44;8.00;89.60
44533;DHT22;48673;53.016;-2.258;2022-09-27T02:38:57;8.00;89.70
44533;DHT22;48673;53.016;-2.258;2022-09-27T02:42:58;7.90;89.60
44533;DHT22;48673;53.016;-2.258;2022-09-27T03:08:13;7.60;89.80
44533;DHT22;48673;53.016;-2.258;2022-09-27T03:21:35;7.40;90.50
44533;DHT22;48673;53.016;-2.258;2022-09-27T03:25:26;7.40;90.80
44533;DHT22;48673;53.016;-2.258;2022-09-27T03:36:04;7.40;91.10
44533;DHT22;48673;53.016;-2.258;2022-09-27T03:38:47;7.40;91.10
44533;DHT22;48673;53.016;-2.258;2022-09-27T03:46:31;7.40;91.20
44533;DHT22;48673;53.016;-2.258;2022-09-27T03:49:23;7.40;91.20
44533;DHT22;48673;53.016;-2.258;2022-09-27T03:57:07;7.30;91.40
44533;DHT22;48673;53.016;-2.258;2022-09-27T04:00:05;7.30;91.50
44533;DHT22;48673;53.016;-2.258;2022-09-27T04:03:45;7.30;91.60
44533;DHT22;48673;53.016;-2.258;2022-09-27T04:07:17;7.30;91.70
44533;DHT22;48673;53.016;-2.258;2022-09-27T04:14:23;7.40;91.90
44533;DHT22;48673;53.016;-2.258;2022-09-27T04:22:44;7.40;92.20
44533;DHT22;48673;53.016;-2.258;2022-09-27T04:30:41;7.40;92.40
44533;DHT22;48673;53.016;-2.258;2022-09-27T04:33:49;7.40;92.50
44533;DHT22;48673;53.016;-2.258;2022-09-27T04:49:32;7.60;92.80
44533;DHT22;48673;53.016;-2.258;2022-09-27T04:53:13;7.60;92.80
44533;DHT22;48673;53.016;-2.258;2022-09-27T04:56:17;7.70;92.90
44533;DHT22;48673;53.016;-2.258;2022-09-27T04:59:11;7.70;92.90
44533;DHT22;48673;53.016;-2.258;2022-09-27T05:05:36;7.80;93.00
44533;DHT22;48673;53.016;-2.258;2022-09-27T05:08:41;7.80;93.00
44533;DHT22;48673;53.016;-2.258;2022-09-27T05:15:47;7.90;93.10
44533;DHT22;48673;53.016;-2.258;2022-09-27T05:19:51;7.90;93.10
44533;DHT22;48673;53.016;-2.258;2022-09-27T05:23:49;7.90;93.20
44533;DHT22;48673;53.016;-2.258;2022-09-27T05:27:37;7.90;93.30
44533;DHT22;48673;53.016;-2.258;2022-09-27T05:30:22;7.90;93.30
44533;DHT22;48673;53.016;-2.258;2022-09-27T05:33:58;8.00;93.20
44533;DHT22;48673;53.016;-2.258;2022-09-27T05:41:14;8.00;93.30
44533;DHT22;48673;53.016;-2.258;2022-09-27T05:47:35;8.10;93.40
44533;DHT22;48673;53.016;-2.258;2022-09-27T05:54:54;8.20;93.40
44533;DHT22;48673;53.016;-2.258;2022-09-27T06:01:37;8.20;93.30
44533;DHT22;48673;53.016;-2.258;2022-09-27T06:04:51;8.20;93.30
44533;DHT22;48673;53.016;-2.258;2022-09-27T06:08:38;8.20;93.30
44533;DHT22;48673;53.016;-2.258;2022-09-27T06:11:50;8.20;93.30
44533;DHT22;48673;53.016;-2.258;2022-09-27T06:22:15;8.20;93.30
44533;DHT22;48673;53.016;-2.258;2022-09-27T06:25:08;8.30;93.40
44533;DHT22;48673;53.016;-2.258;2022-09-27T06:28:14;8.30;93.50
44533;DHT22;48673;53.016;-2.258;2022-09-27T06:31:23;8.40;93.60
44533;DHT22;48673;53.016;-2.258;2022-09-27T06:39:10;8.40;93.60
44533;DHT22;48673;53.016;-2.258;2022-09-27T06:46:42;8.70;94.20
44533;DHT22;48673;53.016;-2.258;2022-09-27T06:49:11;8.80;94.20
44533;DHT22;48673;53.016;-2.258;2022-09-27T06:51:40;8.80;94.10
44533;DHT22;48673;53.016;-2.258;2022-09-27T06:54:11;8.80;94.00
44533;DHT22;48673;53.016;-2.258;2022-09-27T06:56:39;8.80;93.90
44533;DHT22;48673;53.016;-2.258;2022-09-27T06:59:07;8.80;93.80
44533;DHT22;48673;53.016;-2.258;2022-09-27T07:02:12;8.80;93.70
44533;DHT22;48673;53.016;-2.258;2022-09-27T07:04:54;8.70;93.60
44533;DHT22;48673;53.016;-2.258;2022-09-27T07:07:46;8.70;93.60
44533;DHT22;48673;53.016;-2.258;2022-09-27T07:10:15;8.70;93.60
44533;DHT22;48673;53.016;-2.258;2022-09-27T07:12:45;8.70;93.60
44533;DHT22;48673;53.016;-2.258;2022-09-27T07:15:21;8.70;93.60
44533;DHT22;48673;53.016;-2.258;2022-09-27T07:18:01;8.70;93.60
44533;DHT22;48673;53.016;-2.258;2022-09-27T07:20:32;8.70;93.70
44533;DHT22;48673;53.016;-2.258;2022-09-27T07:23:01;8.70;93.70
44533;DHT22;48673;53.016;-2.258;2022-09-27T07:25:42;8.80;93.70
44533;DHT22;48673;53.016;-2.258;2022-09-27T07:28:36;8.80;93.60
44533;DHT22;48673;53.016;-2.258;2022-09-27T07:49:33;9.00;93.50
44533;DHT22;48673;53.016;-2.258;2022-09-27T07:52:26;9.10;93.40
44533;DHT22;48673;53.016;-2.258;2022-09-27T07:56:26;9.10;93.20
44533;DHT22;48673;53.016;-2.258;2022-09-27T07:59:23;9.10;93.20
44533;DHT22;48673;53.016;-2.258;2022-09-27T08:03:23;9.10;93.20
44533;DHT22;48673;53.016;-2.258;2022-09-27T08:06:14;9.20;93.20
44533;DHT22;48673;53.016;-2.258;2022-09-27T08:12:15;9.30;93.10
44533;DHT22;48673;53.016;-2.258;2022-09-27T08:15:09;9.20;92.90
44533;DHT22;48673;53.016;-2.258;2022-09-27T08:17:37;9.20;93.00
44533;DHT22;48673;53.016;-2.258;2022-09-27T08:20:12;9.20;93.00
44533;DHT22;48673;53.016;-2.258;2022-09-27T08:23:12;9.20;93.00
44533;DHT22;48673;53.016;-2.258;2022-09-27T08:26:20;9.20;92.90
44533;DHT22;48673;53.016;-2.258;2022-09-27T08:29:04;9.10;92.80
44533;DHT22;48673;53.016;-2.258;2022-09-27T08:31:40;9.00;92.50
44533;DHT22;48673;53.016;-2.258;2022-09-27T08:34:14;8.90;92.50
44533;DHT22;48673;53.016;-2.258;2022-09-27T08:36:44;8.80;92.40
44533;DHT22;48673;53.016;-2.258;2022-09-27T08:39:56;8.70;92.50
44533;DHT22;48673;53.016;-2.258;2022-09-27T08:42:44;8.70;92.60
44533;DHT22;48673;53.016;-2.258;2022-09-27T08:45:35;8.60;92.50
44533;DHT22;48673;53.016;-2.258;2022-09-27T08:51:55;8.50;92.50
44533;DHT22;48673;53.016;-2.258;2022-09-27T08:55:45;8.40;92.50
44533;DHT22;48673;53.016;-2.258;2022-09-27T08:59:01;8.40;92.60
44533;DHT22;48673;53.016;-2.258;2022-09-27T09:02:33;8.40;92.70
44533;DHT22;48673;53.016;-2.258;2022-09-27T09:05:33;8.50;92.80
44533;DHT22;48673;53.016;-2.258;2022-09-27T09:08:27;8.50;92.90
44533;DHT22;48673;53.016;-2.258;2022-09-27T09:11:45;8.60;92.80
44533;DHT22;48673;53.016;-2.258;2022-09-27T09:15:12;8.70;92.70
44533;DHT22;48673;53.016;-2.258;2022-09-27T09:24:14;8.90;92.80
44533;DHT22;48673;53.016;-2.258;2022-09-27T09:30:00;9.10;92.50
44533;DHT22;48673;53.016;-2.258;2022-09-27T09:32:58;9.30;92.50
44533;DHT22;48673;53.016;-2.258;2022-09-27T09:38:57;9.60;92.30
44533;DHT22;48673;53.016;-2.258;2022-09-27T09:44:26;9.80;92.00
44533;DHT22;48673;53.016;-2.258;2022-09-27T09:47:01;9.90;91.80
44533;DHT22;48673;53.016;-2.258;2022-09-27T09:49:43;9.90;91.70
44533;DHT22;48673;53.016;-2.258;2022-09-27T09:52:17;10.00;91.50
44533;DHT22;48673;53.016;-2.258;2022-09-27T09:54:50;10.10;91.20
44533;DHT22;48673;53.016;-2.258;2022-09-27T09:57:29;10.30;91.20
44533;DHT22;48673;53.016;-2.258;2022-09-27T10:00:05;10.40;90.90
44533;DHT22;48673;53.016;-2.258;2022-09-27T10:02:44;10.40;90.50
44533;DHT22;48673;53.016;-2.258;2022-09-27T10:05:22;10.40;90.20
44533;DHT22;48673;53.016;-2.258;2022-09-27T10:08:03;10.60;89.80
44533;DHT22;48673;53.016;-2.258;2022-09-27T10:10:31;10.60;89.40
44533;DHT22;48673;53.016;-2.258;2022-09-27T10:13:38;10.50;89.10
44533;DHT22;48673;53.016;-2.258;2022-09-27T10:16:14;10.40;88.80
44533;DHT22;48673;53.016;-2.258;2022-09-27T10:18:47;10.40;88.50
44533;DHT22;48673;53.016;-2.258;2022-09-27T10:21:40;10.40;88.20
44533;DHT22;48673;53.016;-2.258;2022-09-27T10:28:08;10.40;88.20
44533;DHT22;48673;53.016;-2.258;2022-09-27T10:30:37;10.40;88.20
44533;DHT22;48673;53.016;-2.258;2022-09-27T10:33:17;10.40;88.10
44533;DHT22;48673;53.016;-2.258;2022-09-27T10:36:26;10.40;88.30
44533;DHT22;48673;53.016;-2.258;2022-09-27T10:39:21;10.30;88.40
44533;DHT22;48673;53.016;-2.258;2022-09-27T10:42:22;10.30;88.50
44533;DHT22;48673;53.016;-2.258;2022-09-27T10:44:52;10.20;88.80
44533;DHT22;48673;53.016;-2.258;2022-09-27T10:48:05;10.30;88.90
44533;DHT22;48673;53.016;-2.258;2022-09-27T10:51:06;10.20;88.90
44533;DHT22;48673;53.016;-2.258;2022-09-27T11:01:39;9.80;89.30
44533;DHT22;48673;53.016;-2.258;2022-09-27T11:13:39;9.50;90.90
44533;DHT22;48673;53.016;-2.258;2022-09-27T11:16:40;9.50;90.80
44533;DHT22;48673;53.016;-2.258;2022-09-27T11:26:55;9.70;90.70
44533;DHT22;48673;53.016;-2.258;2022-09-27T11:53:15;8.80;90.70
44533;DHT22;48673;53.016;-2.258;2022-09-27T11:56:34;8.70;90.50
44533;DHT22;48673;53.016;-2.258;2022-09-27T12:06:45;8.40;90.70
44533;DHT22;48673;53.016;-2.258;2022-09-27T12:09:46;8.40;90.80
44533;DHT22;48673;53.016;-2.258;2022-09-27T12:12:56;8.40;90.80
44533;DHT22;48673;53.016;-2.258;2022-09-27T12:16:25;8.40;90.80
44533;DHT22;48673;53.016;-2.258;2022-09-27T12:19:55;8.40;90.80
44533;DHT22;48673;53.016;-2.258;2022-09-27T12:30:03;8.40;90.80
44533;DHT22;48673;53.016;-2.258;2022-09-27T12:33:25;8.60;91.10
44533;DHT22;48673;53.016;-2.258;2022-09-27T12:43:21;8.90;91.10
44533;DHT22;48673;53.016;-2.258;2022-09-27T12:46:29;9.00;91.00
44533;DHT22;48673;53.016;-2.258;2022-09-27T12:49:26;9.20;90.90
44533;DHT22;48673;53.016;-2.258;2022-09-27T12:52:09;9.30;90.50
44533;DHT22;48673;53.016;-2.258;2022-09-27T12:55:41;9.30;89.90
44533;DHT22;48673;53.016;-2.258;2022-09-27T13:10:31;9.10;90.30
44533;DHT22;48673;53.016;-2.258;2022-09-27T13:13:20;9.10;90.50
44533;DHT22;48673;53.016;-2.258;2022-09-27T13:15:49;9.10;90.50
44533;DHT22;48673;53.016;-2.258;2022-09-27T13:21:06;9.40;90.90
44533;DHT22;48673;53.016;-2.258;2022-09-27T13:26:24;9.60;90.40
44533;DHT22;48673;53.016;-2.258;2022-09-27T13:29:25;9.60;89.90
44533;DHT22;48673;53.016;-2.258;2022-09-27T13:34:44;9.40;89.90
44533;DHT22;48673;53.016;-2.258;2022-09-27T13:37:49;9.40;90.00
44533;DHT22;48673;53.016;-2.258;2022-09-27T13:40:42;9.40;90.60
44533;DHT22;48673;53.016;-2.258;2022-09-27T13:49:39;10.60;91.20
44533;DHT22;48673;53.016;-2.258;2022-09-27T13:58:58;10.40;87.50
44533;DHT22;48673;53.016;-2.258;2022-09-27T14:01:54;9.70;87.50
44533;DHT22;48673;53.016;-2.258;2022-09-27T14:04:42;9.20;88.00
44533;DHT22;48673;53.016;-2.258;2022-09-27T14:07:14;9.10;89.40
44533;DHT22;48673;53.016;-2.258;2022-09-27T14:09:45;9.80;90.80
44533;DHT22;48673;53.016;-2.258;2022-09-27T14:12:32;10.60;90.60
44533;DHT22;48673;53.016;-2.258;2022-09-27T14:15:18;11.60;89.30
44533;DHT22;48673;53.016;-2.258;2022-09-27T14:17:49;12.40;88.20
44533;DHT22;48673;53.016;-2.258;2022-09-27T14:20:49;12.50;86.90
44533;DHT22;48673;53.016;-2.258;2022-09-27T14:23:39;12.00;85.70
44533;DHT22;48673;53.016;-2.258;2022-09-27T14:26:25;11.40;85.80
44533;DHT22;48673;53.016;-2.258;2022-09-27T14:29:21;10.90;86.50
44533;DHT22;48673;53.016;-2.258;2022-09-27T14:32:24;10.70;87.80
44533;DHT22;48673;53.016;-2.258;2022-09-27T14:35:14;10.50;87.80
44533;DHT22;48673;53.016;-2.258;2022-09-27T14:41:35;10.90;90.10
44533;DHT22;48673;53.016;-2.258;2022-09-27T14:44:18;12.20;89.20
44533;DHT22;48673;53.016;-2.258;2022-09-27T14:47:21;13.30;87.60
44533;DHT22;48673;53.016;-2.258;2022-09-27T14:49:58;14.40;85.00
44533;DHT22;48673;53.016;-2.258;2022-09-27T14:52:30;14.80;82.40
44533;DHT22;48673;53.016;-2.258;2022-09-27T14:55:29;15.00;81.10
44533;DHT22;48673;53.016;-2.258;2022-09-27T14:58:00;14.70;79.20
44533;DHT22;48673;53.016;-2.258;2022-09-27T15:00:33;14.40;78.70
44533;DHT22;48673;53.016;-2.258;2022-09-27T15:03:06;14.60;78.90
44533;DHT22;48673;53.016;-2.258;2022-09-27T15:05:40;14.90;77.30
44533;DHT22;48673;53.016;-2.258;2022-09-27T15:08:12;14.70;76.40
44533;DHT22;48673;53.016;-2.258;2022-09-27T15:10:48;14.10;75.70
44533;DHT22;48673;53.016;-2.258;2022-09-27T15:13:17;13.40;76.70
44533;DHT22;48673;53.016;-2.258;2022-09-27T15:16:15;12.90;77.80
44533;DHT22;48673;53.016;-2.258;2022-09-27T15:22:41;11.80;79.60
44533;DHT22;48673;53.016;-2.258;2022-09-27T15:25:32;11.30;80.50
44533;DHT22;48673;53.016;-2.258;2022-09-27T15:30:41;10.90;82.00
44533;DHT22;48673;53.016;-2.258;2022-09-27T15:33:25;10.90;82.20
44533;DHT22;48673;53.016;-2.258;2022-09-27T15:36:03;10.90;82.60
44533;DHT22;48673;53.016;-2.258;2022-09-27T15:38:42;11.40;83.40
